Time;durP1;ratioP1;P1;durP2;ratioP2;P2;SDS_P1;SDS_P2;PMS_P1;PMS_P2;Temp;Humidity;BMP_temperature;BMP_pressure;BME280_temperature;BME280_humidity;BME280_pressure;Samples;Min_cycle;Max_cycle;Signal;HPM_P1;HPM_P2
2023/09/19 00:00:59;;;;;;;0.60;0.50;;;;;;;18.34;97.87;95707.59;5071618;28;20972;-56
2023/09/19 00:03:28;;;;;;;0.40;0.20;;;;;;;18.30;98.46;95701.25;5070331;28;21007;-56
2023/09/19 00:05:59;;;;;;;0.53;0.50;;;;;;;17.66;100.00;95639.03;5071080;28;20441;-56
2023/09/19 00:08:28;;;;;;;0.50;0.37;;;;;;;18.07;100.00;95705.06;5045765;28;20940;-57
2023/09/19 00:11:01;;;;;;;0.50;0.30;;;;;;;17.68;100.00;95657.50;5071402;28;20452;-56
2023/09/19 00:13:30;;;;;;;0.70;0.40;;;;;;;18.05;100.00;95699.22;5071000;28;20474;-57
2023/09/19 00:16:01;;;;;;;0.40;0.40;;;;;;;18.11;100.00;95693.44;5070934;28;20434;-56
2023/09/19 00:18:32;;;;;;;0.70;0.70;;;;;;;18.09;100.00;95702.88;5071690;28;20775;-56
2023/09/19 00:21:00;;;;;;;0.80;0.30;;;;;;;18.02;100.00;95697.94;5071298;28;20441;-56
2023/09/19 00:23:29;;;;;;;0.50;0.40;;;;;;;17.65;100.00;95701.81;5070779;28;20441;-56
2023/09/19 00:26:00;;;;;;;0.70;0.40;;;;;;;17.38;100.00;95642.13;5071350;28;20512;-56
2023/09/19 00:28:29;;;;;;;0.70;0.60;;;;;;;17.68;100.00;95678.97;5071919;28;20460;-56
2023/09/19 00:31:01;;;;;;;0.40;0.30;;;;;;;17.84;100.00;95706.97;5070797;28;20467;-56
2023/09/19 00:33:30;;;;;;;0.60;0.40;;;;;;;17.95;100.00;95708.31;5067927;28;20441;-56
2023/09/19 00:35:59;;;;;;;0.50;0.37;;;;;;;17.78;100.00;95706.28;5045017;28;20469;-57
2023/09/19 00:38:28;;;;;;;0.60;0.60;;;;;;;17.24;100.00;95703.78;5069700;28;20445;-57
2023/09/19 00:40:57;;;;;;;0.50;0.40;;;;;;;17.52;100.00;95699.97;5070442;28;20445;-57
2023/09/19 00:43:29;;;;;;;0.60;0.40;;;;;;;17.74;100.00;95704.53;5070858;28;20578;-57
2023/09/19 00:46:00;;;;;;;0.50;0.30;;;;;;;17.66;100.00;95700.69;5071344;28;20513;-57
2023/09/19 00:48:31;;;;;;;0.50;0.30;;;;;;;17.78;100.00;95700.94;5070684;28;20491;-57
2023/09/19 00:51:05;;;;;;;0.50;0.30;;;;;;;17.76;100.00;95696.97;5071322;28;20890;-56
2023/09/19 00:53:35;;;;;;;0.50;0.40;;;;;;;17.89;100.00;95695.31;5070669;28;20584;-56
2023/09/19 00:56:05;;;;;;;0.60;0.60;;;;;;;17.56;100.00;95695.56;5070971;28;20523;-57
2023/09/19 00:58:35;;;;;;;0.50;0.30;;;;;;;17.55;100.00;95687.84;5070107;28;20472;-57
2023/09/19 01:01:06;;;;;;;0.50;0.40;;;;;;;17.58;100.00;95696.06;5057265;28;20446;-56
2023/09/19 01:03:38;;;;;;;0.50;0.40;;;;;;;17.65;100.00;95695.66;5061064;28;20490;-57
2023/09/19 01:06:07;;;;;;;0.50;0.30;;;;;;;17.46;100.00;95689.63;5073436;28;20476;-56
2023/09/19 01:08:36;;;;;;;6.10;0.70;;;;;;;16.86;100.00;95699.78;5074349;28;20524;-56
2023/09/19 01:11:13;;;;;;;0.50;0.50;;;;;;;16.39;100.00;95693.69;5074195;28;20447;-56
2023/09/19 01:13:57;;;;;;;0.50;0.40;;;;;;;16.10;100.00;95623.63;5074642;28;20451;-56
2023/09/19 01:16:39;;;;;;;0.50;0.50;;;;;;;16.70;100.00;95701.94;5072045;28;20433;-56
2023/09/19 01:19:37;;;;;;;0.57;0.37;;;;;;;17.01;100.00;95694.91;5074853;28;20561;-56
2023/09/19 01:22:14;;;;;;;0.50;0.40;;;;;;;17.09;100.00;95694.19;5029891;28;20520;-57
2023/09/19 01:25:08;;;;;;;2.40;0.50;;;;;;;16.49;100.00;95666.72;5074333;28;20443;-56
2023/09/19 01:28:05;;;;;;;0.67;0.30;;;;;;;16.27;100.00;95697.94;5073716;28;20470;-56
2023/09/19 01:30:40;;;;;;;2.10;0.80;;;;;;;16.49;100.00;95703.44;5073433;28;20449;-56
2023/09/19 01:33:10;;;;;;;0.90;0.70;;;;;;;16.76;100.00;95703.44;5074422;28;20979;-56
2023/09/19 01:35:40;;;;;;;0.57;0.30;;;;;;;16.99;100.00;95688.25;5074003;28;20557;-56
2023/09/19 01:38:11;;;;;;;0.40;0.30;;;;;;;16.67;100.00;95675.78;5074173;28;20443;-56
2023/09/19 01:40:43;;;;;;;0.40;0.30;;;;;;;16.94;100.00;95691.84;5073635;28;20555;-56
2023/09/19 01:43:22;;;;;;;1.20;0.53;;;;;;;16.69;100.00;95692.34;5074230;28;20453;-56
2023/09/19 01:46:00;;;;;;;1.63;0.43;;;;;;;16.74;100.00;95686.09;5073754;28;20440;-56
2023/09/19 01:48:40;;;;;;;0.40;0.30;;;;;;;16.42;100.00;95631.56;5073624;28;20436;-56
2023/09/19 01:51:10;;;;;;;0.50;0.50;;;;;;;16.94;100.00;95686.47;5073594;28;20440;-56
2023/09/19 01:53:52;;;;;;;0.90;0.73;;;;;;;16.73;100.00;95677.28;5073293;28;20556;-56
2023/09/19 01:56:26;;;;;;;0.90;0.60;;;;;;;16.62;100.00;95675.88;5073626;28;20475;-56
2023/09/19 01:58:58;;;;;;;0.57;0.50;;;;;;;16.51;100.00;95672.59;5073719;28;20452;-56
2023/09/19 02:01:29;;;;;;;0.43;0.30;;;;;;;16.48;100.00;95670.53;5073232;28;20509;-56
2023/09/19 02:03:59;;;;;;;0.40;0.30;;;;;;;16.59;100.00;95668.47;5073555;28;20934;-56
2023/09/19 02:06:28;;;;;;;0.70;0.40;;;;;;;16.88;100.00;95676.97;5073203;28;20434;-56
2023/09/19 02:08:57;;;;;;;0.40;0.30;;;;;;;16.78;100.00;95668.34;5074222;28;20476;-56
2023/09/19 02:11:25;;;;;;;0.90;0.70;;;;;;;16.55;100.00;95670.13;5072491;28;20433;-56
2023/09/19 02:13:54;;;;;;;0.40;0.30;;;;;;;16.62;100.00;95672.44;5072443;28;20838;-56
2023/09/19 02:16:23;;;;;;;6.60;0.60;;;;;;;16.44;100.00;95669.50;5072698;28;20429;-56
2023/09/19 02:18:53;;;;;;;0.50;0.40;;;;;;;16.57;100.00;95677.88;5072420;28;20938;-56
2023/09/19 02:21:22;;;;;;;0.50;0.30;;;;;;;16.54;100.00;95673.13;5072188;28;21033;-56
2023/09/19 02:23:51;;;;;;;0.50;0.30;;;;;;;16.55;100.00;95661.31;5071480;28;20442;-56
2023/09/19 02:26:20;;;;;;;0.50;0.43;;;;;;;16.61;100.00;95673.50;5073486;28;20478;-56
2023/09/19 02:28:48;;;;;;;0.40;0.20;;;;;;;16.68;100.00;95663.19;5072643;28;20441;-56
2023/09/19 02:31:17;;;;;;;0.50;0.30;;;;;;;16.71;100.00;95670.63;5073410;28;20456;-56
2023/09/19 02:33:46;;;;;;;0.50;0.30;;;;;;;16.40;100.00;95670.41;5072309;28;20527;-56
2023/09/19 02:36:17;;;;;;;0.60;0.30;;;;;;;16.66;100.00;95660.03;5073150;28;20572;-56
2023/09/19 02:38:46;;;;;;;0.50;0.40;;;;;;;16.76;100.00;95651.78;5072122;28;20466;-56
2023/09/19 02:41:14;;;;;;;0.40;0.23;;;;;;;16.75;100.00;95644.84;5073295;28;20908;-56
2023/09/19 02:43:43;;;;;;;0.60;0.40;;;;;;;16.93;100.00;95662.66;5072015;28;20523;-56
2023/09/19 02:46:12;;;;;;;0.50;0.47;;;;;;;17.01;100.00;95660.09;5072285;28;20518;-56
2023/09/19 02:48:41;;;;;;;0.40;0.40;;;;;;;16.76;100.00;95654.47;5071734;28;20441;-56
2023/09/19 02:51:10;;;;;;;1.13;0.70;;;;;;;16.95;100.00;95655.91;5072635;28;20442;-56
2023/09/19 02:53:40;;;;;;;0.40;0.30;;;;;;;16.88;100.00;95657.41;5071879;28;20440;-56
2023/09/19 02:56:11;;;;;;;0.50;0.40;;;;;;;16.54;100.00;95654.41;5070862;28;20956;-56
2023/09/19 02:58:41;;;;;;;0.40;0.30;;;;;;;16.64;100.00;95654.19;5072318;28;20437;-56
2023/09/19 03:01:11;;;;;;;0.60;0.40;;;;;;;16.83;100.00;95644.94;5072973;28;20615;-55
2023/09/19 03:03:40;;;;;;;0.70;0.67;;;;;;;16.75;100.00;95655.56;5046537;28;20433;-56
2023/09/19 03:06:09;;;;;;;0.60;0.57;;;;;;;16.66;100.00;95649.31;5072368;28;20532;-56
2023/09/19 03:08:39;;;;;;;0.40;0.30;;;;;;;16.73;100.00;95655.84;5072147;28;20455;-56
2023/09/19 03:11:12;;;;;;;0.40;0.30;;;;;;;16.79;100.00;95652.00;5072235;28;20442;-56
2023/09/19 03:13:42;;;;;;;0.60;0.40;;;;;;;16.68;100.00;95650.59;5071932;28;20441;-56
2023/09/19 03:16:11;;;;;;;0.50;0.40;;;;;;;16.46;100.00;95605.00;5070806;28;20987;-56
2023/09/19 03:18:39;;;;;;;0.60;0.50;;;;;;;16.36;100.00;95651.50;5072085;28;20893;-56
2023/09/19 03:21:08;;;;;;;0.60;0.40;;;;;;;16.09;100.00;95656.03;5071356;28;21022;-56
2023/09/19 03:23:37;;;;;;;0.80;0.53;;;;;;;15.43;100.00;95645.63;5070297;28;20445;-56
2023/09/19 03:26:06;;;;;;;0.70;0.40;;;;;;;15.21;100.00;95649.69;5070940;28;20832;-55
2023/09/19 03:28:36;;;;;;;0.70;0.40;;;;;;;14.86;100.00;95660.88;5071444;28;20447;-55
2023/09/19 03:31:06;;;;;;;0.40;0.30;;;;;;;14.72;100.00;95662.66;5071732;28;21091;-55
2023/09/19 03:33:35;;;;;;;1.47;1.37;;;;;;;14.54;100.00;95663.41;5070772;28;20440;-55
2023/09/19 03:36:05;;;;;;;1.53;0.90;;;;;;;14.53;100.00;95654.63;5071755;28;20477;-55
2023/09/19 03:38:34;;;;;;;0.83;0.57;;;;;;;14.67;100.00;95665.41;5071477;28;20953;-55
2023/09/19 03:41:03;;;;;;;0.60;0.50;;;;;;;15.24;100.00;95656.31;5071684;28;20951;-54
2023/09/19 03:43:33;;;;;;;2.87;0.77;;;;;;;15.33;100.00;95608.41;5071741;28;20452;-55
2023/09/19 03:46:05;;;;;;;0.80;0.60;;;;;;;16.00;100.00;95660.47;5071729;28;20433;-54
2023/09/19 03:48:34;;;;;;;1.03;0.97;;;;;;;16.05;100.00;95663.84;5070531;28;20449;-54
2023/09/19 03:51:02;;;;;;;1.10;0.80;;;;;;;15.30;100.00;95665.84;5070856;28;20444;-55
2023/09/19 03:53:31;;;;;;;2.20;0.50;;;;;;;15.43;100.00;95653.66;5070359;28;20991;-55
2023/09/19 03:55:59;;;;;;;7.90;1.13;;;;;;;15.47;100.00;95662.69;5071287;28;20449;-55
2023/09/19 03:58:28;;;;;;;0.77;0.50;;;;;;;15.56;100.00;95661.72;5070728;28;20957;-55
2023/09/19 04:00:57;;;;;;;0.50;0.40;;;;;;;15.34;100.00;95626.00;5070773;28;20501;-55
2023/09/19 04:03:34;;;;;;;1.77;1.67;;;;;;;15.83;100.00;95666.38;5069158;28;21149;-55
2023/09/19 04:06:04;;;;;;;0.40;0.30;;;;;;;15.78;100.00;95672.59;5070513;28;20441;-55
2023/09/19 04:08:32;;;;;;;0.50;0.40;;;;;;;15.80;100.00;95678.44;5070826;28;20452;-55
2023/09/19 04:11:01;;;;;;;0.73;0.53;;;;;;;16.07;100.00;95680.38;5069965;28;20445;-55
2023/09/19 04:13:29;;;;;;;0.50;0.40;;;;;;;15.81;100.00;95684.59;5069565;28;20437;-55
2023/09/19 04:15:58;;;;;;;0.60;0.60;;;;;;;15.72;100.00;95692.47;5070245;28;20460;-55
2023/09/19 04:18:30;;;;;;;1.30;1.20;;;;;;;15.82;100.00;95688.81;5070462;28;20468;-53
2023/09/19 04:20:59;;;;;;;0.70;0.53;;;;;;;15.71;100.00;95696.22;5071104;28;20560;-55
2023/09/19 04:23:28;;;;;;;0.50;0.30;;;;;;;15.51;100.00;95698.44;5059873;28;20449;-55
2023/09/19 04:25:57;;;;;;;0.50;0.43;;;;;;;15.34;100.00;95693.56;5068950;28;20858;-55
2023/09/19 04:28:27;;;;;;;0.63;0.63;;;;;;;15.29;100.00;95690.97;5071176;28;20441;-54
2023/09/19 04:30:56;;;;;;;0.70;0.67;;;;;;;15.41;100.00;95688.63;5070997;28;21025;-55
2023/09/19 04:33:24;;;;;;;1.77;0.87;;;;;;;15.51;100.00;95698.44;5071207;28;20844;-54
2023/09/19 04:35:55;;;;;;;0.50;0.40;;;;;;;15.88;100.00;95695.69;5069890;28;20842;-54
2023/09/19 04:38:27;;;;;;;0.70;0.70;;;;;;;15.67;100.00;95705.13;5073397;28;20474;-54
2023/09/19 04:40:58;;;;;;;0.60;0.60;;;;;;;15.56;100.00;95701.81;5074443;28;20481;-55
2023/09/19 04:43:28;;;;;;;0.70;0.60;;;;;;;15.86;100.00;95711.22;5073725;28;20992;-55
2023/09/19 04:45:56;;;;;;;0.73;0.70;;;;;;;15.35;100.00;95657.78;5074932;28;20453;-55
2023/09/19 04:48:25;;;;;;;0.50;0.40;;;;;;;15.73;100.00;95704.75;5074350;28;20503;-55
2023/09/19 04:50:55;;;;;;;0.50;0.33;;;;;;;15.90;100.00;95704.22;5074826;28;20498;-56
2023/09/19 04:53:24;;;;;;;0.77;0.77;;;;;;;16.23;100.00;95707.66;5074731;28;20511;-56
2023/09/19 04:55:55;;;;;;;0.50;0.40;;;;;;;16.16;100.00;95683.97;5074372;28;20437;-56
2023/09/19 04:58:24;;;;;;;0.50;0.50;;;;;;;16.44;100.00;95706.19;5075048;28;20498;-55
2023/09/19 05:00:52;;;;;;;1.10;0.60;;;;;;;16.45;100.00;95710.44;5074386;28;20440;-55
2023/09/19 05:03:22;;;;;;;0.90;0.47;;;;;;;16.03;100.00;95655.31;5074959;28;20468;-55
2023/09/19 05:05:50;;;;;;;0.50;0.40;;;;;;;16.39;100.00;95698.28;5075104;28;20440;-55
2023/09/19 05:08:22;;;;;;;0.73;0.47;;;;;;;16.70;100.00;95698.47;5074995;28;20455;-55
2023/09/19 05:10:50;;;;;;;0.77;0.53;;;;;;;17.06;100.00;95704.69;5074768;28;20441;-56
2023/09/19 05:13:19;;;;;;;0.40;0.40;;;;;;;17.17;100.00;95699.94;5075318;28;20433;-56
2023/09/19 05:15:47;;;;;;;0.80;0.50;;;;;;;17.13;100.00;95699.72;5074595;28;20441;-57
2023/09/19 05:18:16;;;;;;;0.87;0.87;;;;;;;16.93;100.00;95700.94;5075044;28;20452;-55
2023/09/19 05:20:44;;;;;;;0.60;0.47;;;;;;;17.16;100.00;95707.16;5073814;28;20437;-56
2023/09/19 05:23:12;;;;;;;0.57;0.40;;;;;;;17.11;100.00;95709.94;5074509;28;20484;-56
2023/09/19 05:25:43;;;;;;;0.53;0.50;;;;;;;16.88;100.00;95709.09;5073815;28;20457;-57
2023/09/19 05:28:15;;;;;;;0.50;0.40;;;;;;;16.81;100.00;95703.34;5074436;28;20812;-55
2023/09/19 05:30:44;;;;;;;2.23;1.30;;;;;;;16.15;100.00;95714.47;5060364;28;20972;-55
2023/09/19 05:33:18;;;;;;;0.87;0.87;;;;;;;15.98;100.00;95706.22;5074664;28;20432;-55
2023/09/19 05:35:47;;;;;;;1.13;0.73;;;;;;;16.15;100.00;95711.78;5073504;28;20992;-56
2023/09/19 05:38:18;;;;;;;0.97;0.97;;;;;;;16.47;100.00;95709.06;5074782;28;20445;-56
2023/09/19 05:40:49;;;;;;;0.80;0.70;;;;;;;16.87;100.00;95706.72;5074462;28;20862;-56
2023/09/19 05:43:18;;;;;;;0.60;0.47;;;;;;;16.92;100.00;95714.66;5073314;28;20563;-56
2023/09/19 05:45:47;;;;;;;1.13;0.50;;;;;;;16.66;100.00;95714.34;5074643;28;20499;-56
2023/09/19 05:48:16;;;;;;;4.03;0.87;;;;;;;16.99;100.00;95709.69;5073475;28;20441;-57
2023/09/19 05:50:46;;;;;;;1.00;0.80;;;;;;;17.10;100.00;95708.38;5065867;28;20496;-57
2023/09/19 05:53:15;;;;;;;0.87;0.87;;;;;;;18.03;100.00;95707.59;5070061;28;20500;-57
2023/09/19 05:55:45;;;;;;;1.40;0.47;;;;;;;18.53;94.96;95702.81;5073842;28;20520;-58
2023/09/19 05:58:17;;;;;;;0.70;0.50;;;;;;;18.71;93.66;95704.47;5073448;28;20442;-58
2023/09/19 06:00:48;;;;;;;1.17;1.07;;;;;;;18.94;91.60;95705.97;5074099;28;20575;-58
2023/09/19 06:03:17;;;;;;;1.27;0.80;;;;;;;19.24;88.13;95700.81;5068710;28;20849;-59
2023/09/19 06:05:49;;;;;;;2.03;1.23;;;;;;;18.99;87.87;95686.22;5065321;28;20448;-59
2023/09/19 06:08:18;;;;;;;1.37;1.07;;;;;;;18.95;88.24;95696.78;5073708;28;20441;-59
2023/09/19 06:10:47;;;;;;;1.43;1.33;;;;;;;18.70;89.66;95700.19;5073510;28;20452;-58
2023/09/19 06:13:18;;;;;;;1.50;1.40;;;;;;;18.97;88.22;95697.25;5061264;28;20464;-58
2023/09/19 06:15:47;;;;;;;0.70;0.70;;;;;;;19.32;87.55;95694.66;5072833;28;20464;-56
2023/09/19 06:18:19;;;;;;;0.50;0.40;;;;;;;19.95;84.57;95649.09;5073658;28;20433;-56
2023/09/19 06:20:50;;;;;;;0.50;0.40;;;;;;;20.84;80.59;95680.47;5072763;28;20852;-56
2023/09/19 06:23:22;;;;;;;0.60;0.50;;;;;;;20.90;78.15;95687.25;5073868;28;20476;-56
2023/09/19 06:25:51;;;;;;;1.67;1.37;;;;;;;21.39;74.53;95683.81;5073366;28;20461;-55
2023/09/19 06:28:24;;;;;;;0.70;0.70;;;;;;;21.64;72.55;95678.53;5073644;28;20451;-55
2023/09/19 06:30:53;;;;;;;5.73;1.20;;;;;;;21.82;71.56;95682.66;5072692;28;20551;-54
2023/09/19 06:33:22;;;;;;;1.37;0.80;;;;;;;22.13;70.24;95681.13;5072993;28;20448;-53
2023/09/19 06:35:52;;;;;;;0.50;0.40;;;;;;;22.40;69.31;95677.00;5073097;28;20836;-53
2023/09/19 06:38:21;;;;;;;0.60;0.50;;;;;;;22.14;69.72;95674.59;5072354;28;20949;-54
2023/09/19 06:40:51;;;;;;;0.90;0.67;;;;;;;22.62;68.61;95681.22;5073199;28;20809;-54
2023/09/19 06:43:21;;;;;;;2.20;0.40;;;;;;;23.01;65.48;95680.56;5072013;28;20522;-54
2023/09/19 06:45:50;;;;;;;1.10;1.03;;;;;;;23.47;65.32;95676.59;5072640;28;20507;-54
2023/09/19 06:48:19;;;;;;;0.50;0.50;;;;;;;23.46;62.25;95672.31;5072055;28;20964;-54
2023/09/19 06:50:48;;;;;;;0.83;0.70;;;;;;;23.28;62.77;95669.03;5072293;28;20901;-54
2023/09/19 06:53:16;;;;;;;8.53;0.50;;;;;;;23.92;63.16;95660.88;5072494;28;21038;-54
2023/09/19 06:55:45;;;;;;;1.37;0.60;;;;;;;24.30;61.09;95656.84;5073213;28;20933;-54
2023/09/19 06:58:13;;;;;;;1.00;0.67;;;;;;;24.11;60.02;95648.63;5072356;28;20440;-54
2023/09/19 07:00:44;;;;;;;0.73;0.73;;;;;;;24.69;59.06;95653.22;5072233;28;20468;-55
2023/09/19 07:03:16;;;;;;;2.00;0.50;;;;;;;25.04;58.75;95651.38;5071820;28;20511;-55
2023/09/19 07:05:44;;;;;;;0.83;0.83;;;;;;;24.35;58.03;95657.41;5072497;28;20492;-55
2023/09/19 07:08:13;;;;;;;2.10;1.17;;;;;;;23.74;59.76;95651.47;5072354;28;20452;-55
2023/09/19 07:10:48;;;;;;;1.23;0.67;;;;;;;23.78;60.72;95649.63;5072181;28;20448;-55
2023/09/19 07:13:17;;;;;;;0.80;0.60;;;;;;;24.05;60.69;95649.97;5072545;28;20476;-55
2023/09/19 07:15:47;;;;;;;0.50;0.47;;;;;;;24.12;61.37;95650.97;5072515;28;20472;-55
2023/09/19 07:18:17;;;;;;;0.50;0.33;;;;;;;24.20;61.77;95657.38;5072766;28;20582;-54
2023/09/19 07:20:49;;;;;;;0.67;0.67;;;;;;;24.69;59.86;95645.09;5071890;28;20440;-55
2023/09/19 07:23:18;;;;;;;1.27;0.80;;;;;;;24.86;57.32;95631.19;5072157;28;20484;-55
2023/09/19 07:25:48;;;;;;;0.50;0.43;;;;;;;25.12;57.11;95647.66;5072241;28;20438;-55
2023/09/19 07:28:17;;;;;;;1.03;0.63;;;;;;;25.69;57.43;95633.41;5072434;28;20480;-55
2023/09/19 07:30:47;;;;;;;0.83;0.50;;;;;;;25.44;56.29;95647.56;5071346;28;20791;-56
2023/09/19 07:33:16;;;;;;;3.90;0.40;;;;;;;24.70;56.65;95643.94;5071677;28;20445;-55
2023/09/19 07:35:47;;;;;;;0.70;0.70;;;;;;;25.38;56.38;95644.34;5071498;28;20469;-54
2023/09/19 07:38:16;;;;;;;1.23;0.40;;;;;;;25.64;55.35;95641.84;5072064;28;20448;-53
2023/09/19 07:40:45;;;;;;;0.57;0.40;;;;;;;26.37;54.27;95641.72;5071984;28;20445;-54
2023/09/19 07:43:13;;;;;;;0.90;0.90;;;;;;;26.24;53.01;95628.66;5071250;28;20560;-53
2023/09/19 07:45:42;;;;;;;0.50;0.50;;;;;;;26.85;52.60;95631.25;5045823;28;20437;-53
2023/09/19 07:48:15;;;;;;;0.70;0.50;;;;;;;27.55;53.31;95613.22;5071825;28;20813;-54
2023/09/19 07:50:44;;;;;;;0.50;0.40;;;;;;;27.41;51.46;95628.59;5071540;28;20499;-53
2023/09/19 07:53:16;;;;;;;0.50;0.50;;;;;;;27.72;50.23;95620.06;5071426;28;20524;-53
2023/09/19 07:55:47;;;;;;;1.00;0.90;;;;;;;26.92;50.87;95615.03;5071761;28;20510;-52
2023/09/19 07:58:16;;;;;;;0.50;0.40;;;;;;;26.74;50.40;95597.66;5071381;28;20829;-53
2023/09/19 08:00:45;;;;;;;0.73;0.47;;;;;;;26.96;49.23;95607.72;5071341;28;20437;-53
2023/09/19 08:03:16;;;;;;;0.60;0.50;;;;;;;27.49;48.88;95608.47;5070561;28;20477;-53
2023/09/19 08:05:45;;;;;;;0.40;0.30;;;;;;;28.56;48.65;95603.81;5071997;28;20437;-53
2023/09/19 08:08:14;;;;;;;0.67;0.30;;;;;;;28.14;48.21;95606.91;5071134;28;20475;-53
2023/09/19 08:10:47;;;;;;;1.13;0.63;;;;;;;28.57;47.19;95602.63;5071290;28;20887;-53
2023/09/19 08:13:18;;;;;;;1.90;0.97;;;;;;;28.70;47.79;95595.78;5045434;28;20433;-55
2023/09/19 08:15:47;;;;;;;0.67;0.40;;;;;;;28.68;46.38;95583.66;5071201;28;20441;-53
2023/09/19 08:18:18;;;;;;;0.80;0.40;;;;;;;28.92;46.12;95602.94;5071784;28;20437;-53
2023/09/19 08:20:50;;;;;;;0.70;0.70;;;;;;;29.06;44.52;95596.00;5071299;28;20425;-54
2023/09/19 08:23:21;;;;;;;0.67;0.50;;;;;;;28.62;45.09;95594.13;5071323;28;21024;-54
2023/09/19 08:25:49;;;;;;;1.07;1.07;;;;;;;28.71;46.44;95591.91;5070445;28;20710;-54
2023/09/19 08:28:18;;;;;;;0.67;0.57;;;;;;;29.12;44.64;95548.09;5071415;28;20468;-54
2023/09/19 08:30:47;;;;;;;3.03;0.50;;;;;;;29.14;45.32;95586.72;5071181;28;20459;-54
2023/09/19 08:33:17;;;;;;;0.80;0.50;;;;;;;28.55;46.00;95580.44;5071285;28;20445;-54
2023/09/19 08:35:45;;;;;;;0.30;0.30;;;;;;;28.91;44.39;95576.84;5071023;28;20544;-54
2023/09/19 08:38:14;;;;;;;0.60;0.50;;;;;;;29.20;44.23;95577.78;5070951;28;20521;-54
2023/09/19 08:40:43;;;;;;;0.40;0.40;;;;;;;29.35;44.07;95568.50;5045996;28;20516;-53
2023/09/19 08:43:12;;;;;;;0.40;0.40;;;;;;;29.45;44.09;95572.44;5071463;28;20465;-53
2023/09/19 08:45:41;;;;;;;0.60;0.60;;;;;;;29.66;42.25;95577.22;5044542;28;20519;-53
2023/09/19 08:48:24;;;;;;;0.40;0.30;;;;;;;29.47;42.36;95570.91;5070825;28;20675;-53
2023/09/19 08:50:58;;;;;;;0.63;0.63;;;;;;;30.03;43.08;95570.31;5071457;28;20840;-53
2023/09/19 08:53:40;;;;;;;0.80;0.80;;;;;;;29.32;42.76;95517.38;5070762;28;20441;-53
2023/09/19 08:56:11;;;;;;;0.80;0.60;;;;;;;29.49;42.18;95565.84;5070192;28;20437;-53
2023/09/19 08:58:47;;;;;;;1.43;1.33;;;;;;;30.39;41.04;95554.78;5070283;28;20429;-53
2023/09/19 09:01:22;;;;;;;0.67;0.57;;;;;;;31.14;39.78;95555.53;5070457;28;20955;-53
2023/09/19 09:03:53;;;;;;;0.50;0.50;;;;;;;31.22;39.35;95489.38;5070765;28;20472;-52
2023/09/19 09:06:23;;;;;;;1.93;0.50;;;;;;;31.36;38.72;95538.63;5070834;28;20437;-52
2023/09/19 09:08:52;;;;;;;0.50;0.40;;;;;;;31.41;39.74;95543.69;5060811;28;20521;-52
2023/09/19 09:11:23;;;;;;;0.60;0.50;;;;;;;31.01;38.51;95529.75;5068265;28;20441;-52
2023/09/19 09:13:51;;;;;;;0.60;0.50;;;;;;;31.24;38.67;95535.53;5070465;28;20458;-52
2023/09/19 09:16:20;;;;;;;0.40;0.30;;;;;;;31.27;38.45;95491.69;5069920;28;20507;-53
2023/09/19 09:18:54;;;;;;;0.50;0.43;;;;;;;31.71;39.52;95521.28;5070634;28;20442;-52
2023/09/19 09:21:23;;;;;;;0.50;0.40;;;;;;;31.40;39.25;95520.22;5070256;28;20944;-53
2023/09/19 09:23:53;;;;;;;0.70;0.60;;;;;;;31.60;38.85;95526.00;5071980;28;20507;-53
2023/09/19 09:26:42;;;;;;;1.37;1.03;;;;;;;32.45;36.78;95515.31;5074380;28;20444;-52
2023/09/19 09:29:11;;;;;;;0.70;0.70;;;;;;;32.14;36.22;95505.34;5074061;28;20476;-53
2023/09/19 09:31:42;;;;;;;0.97;0.93;;;;;;;32.44;35.76;95507.47;5074138;28;20444;-54
2023/09/19 09:34:13;;;;;;;1.30;0.63;;;;;;;32.95;37.31;95501.13;5074121;28;20530;-53
2023/09/19 09:36:43;;;;;;;0.50;0.50;;;;;;;33.57;35.58;95498.09;5074057;28;20432;-53
2023/09/19 09:39:24;;;;;;;0.60;0.60;;;;;;;33.53;35.14;95491.84;5073814;28;20451;-52
2023/09/19 09:41:53;;;;;;;0.63;0.63;;;;;;;32.65;34.79;95499.09;5073901;28;20444;-53
2023/09/19 09:44:22;;;;;;;0.50;0.30;;;;;;;32.26;36.11;95493.13;5074149;28;21010;-53
2023/09/19 09:49:39;;;;;;;0.40;0.30;;;;;;;32.40;35.40;95485.56;5073967;28;20449;-54
2023/09/19 09:52:16;;;;;;;1.50;0.53;;;;;;;32.27;35.65;95484.50;5073846;28;20820;-52
2023/09/19 09:55:01;;;;;;;0.40;0.30;;;;;;;30.69;36.94;95480.50;5073272;28;20523;-53
2023/09/19 09:57:30;;;;;;;0.80;0.73;;;;;;;30.80;37.48;95479.31;5073591;28;20447;-55
2023/09/19 10:00:15;;;;;;;0.80;0.50;;;;;;;30.75;36.71;95443.34;5073316;28;20440;-54
2023/09/19 10:02:46;;;;;;;0.30;0.20;;;;;;;31.81;36.88;95470.31;5073572;28;20523;-53
2023/09/19 10:05:32;;;;;;;0.40;0.30;;;;;;;31.66;36.71;95482.53;5073485;28;20503;-53
2023/09/19 10:08:12;;;;;;;0.40;0.37;;;;;;;30.36;37.63;95483.69;5073397;28;20460;-54
2023/09/19 10:10:53;;;;;;;1.60;0.60;;;;;;;30.75;37.37;95482.44;5072804;28;20436;-55
2023/09/19 10:13:28;;;;;;;1.93;0.93;;;;;;;30.41;38.99;95480.56;5073885;28;20440;-54
2023/09/19 10:16:00;;;;;;;0.40;0.30;;;;;;;29.01;41.72;95375.31;5072848;28;20448;-55
2023/09/19 10:18:29;;;;;;;0.40;0.40;;;;;;;30.31;39.55;95473.13;5073584;28;20436;-54
2023/09/19 10:21:00;;;;;;;0.70;0.70;;;;;;;30.34;38.97;95475.03;5072791;28;20441;-54
2023/09/19 10:23:29;;;;;;;0.50;0.40;;;;;;;30.39;40.25;95428.19;5073480;28;20498;-54
2023/09/19 10:26:01;;;;;;;0.50;0.40;;;;;;;30.80;39.14;95473.06;5073076;28;20475;-54
2023/09/19 10:28:33;;;;;;;0.50;0.50;;;;;;;30.46;38.25;95477.44;5073871;28;20437;-54
2023/09/19 10:31:03;;;;;;;0.40;0.40;;;;;;;30.99;37.36;95464.44;5072460;28;20437;-54
2023/09/19 10:33:37;;;;;;;0.60;0.60;;;;;;;31.28;38.22;95463.13;5072783;28;20449;-54
2023/09/19 10:36:10;;;;;;;0.30;0.30;;;;;;;31.57;38.82;95452.84;5071820;28;20467;-54
2023/09/19 10:38:44;;;;;;;0.50;0.40;;;;;;;31.53;39.33;95454.03;5073239;28;20505;-54
2023/09/19 10:41:17;;;;;;;0.53;0.53;;;;;;;30.71;41.01;95446.09;5073397;28;20514;-54
2023/09/19 10:43:49;;;;;;;0.50;0.30;;;;;;;31.17;39.91;95448.69;5072955;28;20433;-54
2023/09/19 10:46:18;;;;;;;0.63;0.50;;;;;;;31.65;38.69;95437.91;5073207;28;20521;-54
2023/09/19 10:48:48;;;;;;;0.60;0.50;;;;;;;31.26;38.70;95435.38;5073133;28;20534;-54
2023/09/19 10:51:24;;;;;;;0.30;0.20;;;;;;;31.82;37.59;95381.41;5072422;28;20477;-54
2023/09/19 10:53:59;;;;;;;7.60;0.60;;;;;;;32.07;37.74;95425.88;5048582;28;20791;-54
2023/09/19 10:56:36;;;;;;;0.40;0.37;;;;;;;31.58;39.59;95423.47;5071921;28;20539;-54
2023/09/19 10:59:10;;;;;;;1.00;0.43;;;;;;;31.78;39.58;95414.31;5072730;28;20467;-54
2023/09/19 11:01:47;;;;;;;3.50;0.40;;;;;;;31.15;40.14;95411.94;5072307;28;20457;-54
2023/09/19 11:04:25;;;;;;;0.60;0.50;;;;;;;30.67;40.78;95414.44;5072337;28;20518;-54
2023/09/19 11:07:11;;;;;;;0.63;0.40;;;;;;;30.45;40.28;95411.00;5048280;28;20440;-54
2023/09/19 11:09:48;;;;;;;0.50;0.47;;;;;;;30.82;39.66;95407.75;5072140;28;20437;-54
2023/09/19 11:12:50;;;;;;;0.40;0.30;;;;;;;31.23;40.44;95403.28;5072013;28;20436;-54
2023/09/19 11:15:55;;;;;;;0.50;0.40;;;;;;;31.62;40.97;95407.78;5011126;28;20438;-55
2023/09/19 11:18:55;;;;;;;0.60;0.50;;;;;;;31.64;41.24;95398.00;5009367;28;20955;-54
2023/09/19 11:21:58;;;;;;;0.40;0.30;;;;;;;31.72;39.73;95398.72;5044474;28;20459;-54
2023/09/19 11:24:35;;;;;;;0.50;0.50;;;;;;;32.21;38.76;95389.31;5068467;28;20441;-54
2023/09/19 11:27:17;;;;;;;0.63;0.60;;;;;;;31.87;37.01;95384.50;5072426;28;20440;-54
2023/09/19 11:29:47;;;;;;;0.57;0.57;;;;;;;32.08;38.48;95334.19;5071683;28;20444;-53
2023/09/19 11:32:17;;;;;;;0.50;0.47;;;;;;;32.52;38.60;95369.81;5071697;28;20425;-53
2023/09/19 11:34:48;;;;;;;0.73;0.40;;;;;;;32.85;36.39;95371.00;5070946;28;20566;-54
2023/09/19 11:38:15;;;;;;;0.40;0.30;;;;;;;32.96;35.55;95371.66;5071141;28;20450;-55
2023/09/19 11:40:54;;;;;;;0.40;0.40;;;;;;;33.68;34.78;95353.03;5071034;28;20505;-54
2023/09/19 11:43:34;;;;;;;0.93;0.93;;;;;;;32.31;36.25;95361.78;5070638;28;20849;-54
2023/09/19 11:46:10;;;;;;;0.40;0.40;;;;;;;32.26;37.54;95354.00;5071153;28;20533;-54
2023/09/19 11:48:44;;;;;;;0.50;0.40;;;;;;;32.13;37.50;95350.19;5070644;28;20452;-54
2023/09/19 11:51:22;;;;;;;0.63;0.60;;;;;;;31.47;38.68;95346.06;5070820;28;20578;-54
2023/09/19 11:53:51;;;;;;;0.70;0.70;;;;;;;31.01;40.38;95351.78;5045476;28;20519;-55